Time;durP1;ratioP1;P1;durP2;ratioP2;P2;SDS_P1;SDS_P2;PMS_P1;PMS_P2;Temp;Humidity;BMP_temperature;BMP_pressure;BME280_temperature;BME280_humidity;BME280_pressure;Samples;Min_cycle;Max_cycle;Signal;HPM_P1;HPM_P2
2020/12/25 00:01:52;;;;;;;;;;;1.30;99.90;;;;;;5098681;28;19919;-62
2020/12/25 00:04:17;;;;;;;;;;;1.20;99.90;;;;;;5097665;28;20049;-62
2020/12/25 00:06:43;;;;;;;;;;;1.20;99.90;;;;;;5097383;28;20038;-62
2020/12/25 00:09:08;;;;;;;;;;;1.20;99.90;;;;;;5097626;28;19914;-62
2020/12/25 00:11:35;;;;;;;;;;;1.20;99.90;;;;;;5097318;28;19908;-62
2020/12/25 00:14:01;;;;;;;;;;;1.10;99.90;;;;;;5098237;28;19911;-62
2020/12/25 00:16:27;;;;;;;;;;;1.00;99.90;;;;;;5098184;28;20054;-62
2020/12/25 00:18:53;;;;;;;;;;;1.00;99.90;;;;;;5098473;28;19965;-62
2020/12/25 00:21:18;;;;;;;;;;;1.00;99.90;;;;;;5098109;28;20229;-62
2020/12/25 00:23:44;;;;;;;;;;;0.90;99.90;;;;;;5098346;28;19912;-62
2020/12/25 00:26:09;;;;;;;;;;;0.90;99.90;;;;;;5097524;28;19912;-62
2020/12/25 00:28:35;;;;;;;;;;;0.90;99.90;;;;;;5098454;28;19911;-62
2020/12/25 00:31:01;;;;;;;;;;;0.80;99.90;;;;;;5096715;28;19908;-62
2020/12/25 00:33:26;;;;;;;;;;;0.90;99.90;;;;;;5080146;28;20315;-63
2020/12/25 00:35:52;;;;;;;;;;;0.90;99.90;;;;;;5097861;28;20263;-62
2020/12/25 00:38:17;;;;;;;;;;;0.80;99.90;;;;;;5098238;28;20002;-62
2020/12/25 00:40:43;;;;;;;;;;;0.80;99.90;;;;;;5098174;28;20225;-62
2020/12/25 00:43:09;;;;;;;;;;;0.80;99.90;;;;;;5098703;28;19908;-62
2020/12/25 00:45:35;;;;;;;;;;;0.90;99.90;;;;;;5098053;28;20310;-62
2020/12/25 00:48:01;;;;;;;;;;;0.90;99.90;;;;;;5098125;28;20007;-62
2020/12/25 00:50:27;;;;;;;;;;;0.80;99.90;;;;;;5096217;28;20099;-62
2020/12/25 00:52:52;;;;;;;;;;;0.90;99.90;;;;;;5096690;28;20031;-62
2020/12/25 00:55:19;;;;;;;;;;;0.90;99.90;;;;;;5097717;28;19977;-62
2020/12/25 00:57:45;;;;;;;;;;;0.90;99.90;;;;;;5079866;28;19937;-62
2020/12/25 01:00:11;;;;;;;;;;;0.90;99.90;;;;;;5097476;28;20104;-62
2020/12/25 01:02:36;;;;;;;;;;;0.80;99.90;;;;;;5097507;28;19951;-62
2020/12/25 01:05:02;;;;;;;;;;;0.80;99.90;;;;;;5097521;28;19950;-62
2020/12/25 01:07:28;;;;;;;;;;;0.80;99.90;;;;;;5097814;28;19954;-62
2020/12/25 01:09:53;;;;;;;;;;;0.70;99.90;;;;;;5097413;28;20014;-62
2020/12/25 01:12:19;;;;;;;;;;;0.80;99.90;;;;;;5097686;28;19904;-62
2020/12/25 01:14:44;;;;;;;;;;;0.80;99.90;;;;;;5096985;28;19908;-62
2020/12/25 01:17:10;;;;;;;;;;;0.70;99.90;;;;;;5097056;28;19908;-62
2020/12/25 01:19:35;;;;;;;;;;;0.60;99.90;;;;;;5096671;28;20303;-62
2020/12/25 01:22:00;;;;;;;;;;;0.60;99.90;;;;;;5096518;28;19919;-62
2020/12/25 01:24:27;;;;;;;;;;;0.60;99.90;;;;;;5097193;28;19912;-62
2020/12/25 01:26:53;;;;;;;;;;;0.60;99.90;;;;;;5097443;28;20307;-62
2020/12/25 01:29:18;;;;;;;;;;;0.60;99.90;;;;;;5097085;28;20073;-62
2020/12/25 01:31:44;;;;;;;;;;;0.60;99.90;;;;;;5097439;28;20229;-62
2020/12/25 01:34:09;;;;;;;;;;;0.70;99.90;;;;;;5097162;28;19908;-62
2020/12/25 01:36:35;;;;;;;;;;;0.70;99.90;;;;;;5095804;28;19908;-62
2020/12/25 01:39:00;;;;;;;;;;;0.80;99.90;;;;;;5096939;28;19908;-62
2020/12/25 01:41:26;;;;;;;;;;;0.80;99.90;;;;;;5096909;28;20302;-62
2020/12/25 01:43:51;;;;;;;;;;;0.90;99.90;;;;;;5096922;28;19912;-62
2020/12/25 01:46:17;;;;;;;;;;;0.90;99.90;;;;;;5096943;28;19908;-62
2020/12/25 01:48:43;;;;;;;;;;;0.90;99.90;;;;;;5095689;28;19956;-62
2020/12/25 01:51:09;;;;;;;;;;;0.90;99.90;;;;;;5079010;28;19914;-62
2020/12/25 01:53:36;;;;;;;;;;;0.80;99.90;;;;;;5097346;28;19927;-62
2020/12/25 01:56:03;;;;;;;;;;;0.80;99.90;;;;;;5097196;28;20286;-62
2020/12/25 01:58:30;;;;;;;;;;;0.80;99.90;;;;;;5096898;28;19918;-62
2020/12/25 02:00:56;;;;;;;;;;;0.70;99.90;;;;;;5097007;28;20245;-62
2020/12/25 02:03:21;;;;;;;;;;;0.80;99.90;;;;;;5097037;28;20070;-62
2020/12/25 02:05:47;;;;;;;;;;;0.80;99.90;;;;;;5097018;28;20246;-62
2020/12/25 02:08:13;;;;;;;;;;;0.80;99.90;;;;;;5096717;28;19915;-62
2020/12/25 02:10:39;;;;;;;;;;;0.80;99.90;;;;;;5095663;28;19998;-62
2020/12/25 02:13:05;;;;;;;;;;;0.80;99.90;;;;;;5096820;28;20685;-62
2020/12/25 02:15:31;;;;;;;;;;;0.80;99.90;;;;;;5095506;28;20346;-62
2020/12/25 02:17:57;;;;;;;;;;;0.70;99.90;;;;;;5095491;28;20660;-62
2020/12/25 02:20:22;;;;;;;;;;;0.60;99.90;;;;;;5096979;28;20077;-62
2020/12/25 02:22:48;;;;;;;;;;;0.50;99.90;;;;;;5096831;28;19918;-62
2020/12/25 02:25:13;;;;;;;;;;;0.50;99.90;;;;;;5096609;28;19995;-62
2020/12/25 02:27:39;;;;;;;;;;;0.30;99.90;;;;;;5095901;28;20004;-62
2020/12/25 02:30:05;;;;;;;;;;;0.40;99.90;;;;;;5096534;28;20406;-62
2020/12/25 02:32:31;;;;;;;;;;;0.40;99.90;;;;;;5097455;28;20269;-62
2020/12/25 02:34:56;;;;;;;;;;;0.30;99.90;;;;;;5100412;28;20294;-62
2020/12/25 02:37:22;;;;;;;;;;;0.30;99.90;;;;;;5098796;28;19908;-62
2020/12/25 02:39:47;;;;;;;;;;;0.30;99.90;;;;;;5100547;28;19931;-62
2020/12/25 02:42:13;;;;;;;;;;;0.30;99.90;;;;;;5100101;28;20006;-62
2020/12/25 02:44:39;;;;;;;;;;;0.30;99.90;;;;;;5099294;28;20223;-62
2020/12/25 02:47:04;;;;;;;;;;;0.20;99.90;;;;;;5099913;28;19904;-62
2020/12/25 02:49:30;;;;;;;;;;;0.30;99.90;;;;;;5099161;28;20438;-62
2020/12/25 02:51:55;;;;;;;;;;;0.20;99.90;;;;;;5100392;28;19907;-62
2020/12/25 02:54:21;;;;;;;;;;;0.20;99.90;;;;;;5100215;28;19914;-62
2020/12/25 02:56:46;;;;;;;;;;;0.10;99.90;;;;;;5099716;28;19908;-62
2020/12/25 02:59:12;;;;;;;;;;;0.20;99.90;;;;;;5100217;28;19912;-62
2020/12/25 03:01:37;;;;;;;;;;;0.10;99.90;;;;;;5099776;28;20282;-62
2020/12/25 03:04:03;;;;;;;;;;;0.10;99.90;;;;;;5099761;28;19923;-62
2020/12/25 03:06:29;;;;;;;;;;;0.10;99.90;;;;;;5098127;28;19912;-62
2020/12/25 03:08:54;;;;;;;;;;;0.20;99.90;;;;;;5099111;28;20002;-62
2020/12/25 03:11:19;;;;;;;;;;;0.20;99.90;;;;;;5099715;28;19908;-60
2020/12/25 03:13:45;;;;;;;;;;;0.20;99.90;;;;;;5098981;28;19950;-62
2020/12/25 03:16:10;;;;;;;;;;;0.20;99.90;;;;;;5099679;28;20283;-62
2020/12/25 03:18:36;;;;;;;;;;;0.30;99.90;;;;;;5098916;28;19908;-62
2020/12/25 03:21:02;;;;;;;;;;;0.30;99.90;;;;;;5099053;28;19908;-62
2020/12/25 03:23:27;;;;;;;;;;;0.20;99.90;;;;;;5099690;28;19953;-62
2020/12/25 03:25:53;;;;;;;;;;;0.20;99.90;;;;;;5097682;28;20279;-64
2020/12/25 03:28:18;;;;;;;;;;;0.10;99.90;;;;;;5098348;28;19908;-64
2020/12/25 03:30:44;;;;;;;;;;;0.10;99.90;;;;;;5098757;28;19908;-64
2020/12/25 03:33:10;;;;;;;;;;;0.10;99.90;;;;;;5099063;28;20302;-64
2020/12/25 03:35:35;;;;;;;;;;;0.10;99.90;;;;;;5099265;28;19908;-64
2020/12/25 03:38:00;;;;;;;;;;;0.10;99.90;;;;;;5099357;28;20214;-64
2020/12/25 03:40:27;;;;;;;;;;;0.10;99.90;;;;;;5098514;28;19919;-64
2020/12/25 03:42:53;;;;;;;;;;;0.10;99.90;;;;;;5099242;28;20272;-64
2020/12/25 03:45:18;;;;;;;;;;;0.00;99.90;;;;;;5098545;28;20237;-65
2020/12/25 03:47:44;;;;;;;;;;;0.00;99.90;;;;;;5098949;28;19908;-64
2020/12/25 03:50:10;;;;;;;;;;;0.00;99.90;;;;;;5097920;28;19908;-64
2020/12/25 03:52:35;;;;;;;;;;;0.10;99.90;;;;;;5098891;28;19950;-64
2020/12/25 03:55:02;;;;;;;;;;;0.00;99.90;;;;;;5099415;28;20206;-64
2020/12/25 03:57:27;;;;;;;;;;;0.00;99.90;;;;;;5097679;28;19916;-64
2020/12/25 03:59:53;;;;;;;;;;;0.00;99.90;;;;;;5097694;28;20493;-64
2020/12/25 04:02:18;;;;;;;;;;;0.00;99.90;;;;;;5098827;28;19915;-64
2020/12/25 04:04:44;;;;;;;;;;;-0.10;99.90;;;;;;5098774;28;20329;-64
2020/12/25 04:07:09;;;;;;;;;;;-0.10;99.90;;;;;;5098380;28;19904;-64
2020/12/25 04:09:35;;;;;;;;;;;-0.10;99.90;;;;;;5098636;28;20071;-63
2020/12/25 04:12:00;;;;;;;;;;;0.00;99.90;;;;;;5098605;28;20054;-63
2020/12/25 04:14:26;;;;;;;;;;;0.00;99.90;;;;;;5098672;28;19914;-63
2020/12/25 04:16:51;;;;;;;;;;;0.10;99.90;;;;;;5098091;28;20003;-63
2020/12/25 04:19:17;;;;;;;;;;;0.20;99.90;;;;;;5097113;28;19908;-63
2020/12/25 04:21:42;;;;;;;;;;;0.10;99.90;;;;;;5097679;28;20241;-63
2020/12/25 04:24:08;;;;;;;;;;;0.20;99.90;;;;;;5096971;28;19962;-63
2020/12/25 04:26:33;;;;;;;;;;;0.20;99.90;;;;;;5098259;28;19950;-63
2020/12/25 04:28:59;;;;;;;;;;;0.20;99.90;;;;;;5097310;28;19961;-63
2020/12/25 04:31:27;;;;;;;;;;;0.30;99.90;;;;;;5098064;28;19915;-63
2020/12/25 04:33:53;;;;;;;;;;;0.20;99.90;;;;;;5096970;28;19912;-63
2020/12/25 04:36:19;;;;;;;;;;;0.20;99.90;;;;;;5098095;28;20251;-63
2020/12/25 04:38:45;;;;;;;;;;;0.20;99.90;;;;;;5098254;28;20036;-63
2020/12/25 04:41:11;;;;;;;;;;;0.20;99.90;;;;;;5098003;28;20024;-63
2020/12/25 04:43:40;;;;;;;;;;;0.20;99.90;;;;;;5096860;28;19912;-63
2020/12/25 04:46:06;;;;;;;;;;;0.20;99.90;;;;;;5097820;28;19915;-63
2020/12/25 04:48:32;;;;;;;;;;;0.20;99.90;;;;;;5096756;28;20037;-63
2020/12/25 04:50:58;;;;;;;;;;;0.30;99.90;;;;;;5079521;28;20031;-64
2020/12/25 04:53:24;;;;;;;;;;;0.20;99.90;;;;;;5097480;28;20211;-63
2020/12/25 04:55:49;;;;;;;;;;;0.30;99.90;;;;;;5096110;28;19934;-63
2020/12/25 04:58:15;;;;;;;;;;;0.30;99.90;;;;;;5096229;28;20454;-63
2020/12/25 05:00:40;;;;;;;;;;;0.30;99.90;;;;;;5097829;28;19912;-63
2020/12/25 05:03:07;;;;;;;;;;;0.20;99.90;;;;;;5079507;28;19916;-63
2020/12/25 05:05:32;;;;;;;;;;;0.30;99.90;;;;;;5098125;28;19908;-63
2020/12/25 05:07:59;;;;;;;;;;;0.30;99.90;;;;;;5098100;28;20019;-63
2020/12/25 05:10:24;;;;;;;;;;;0.30;99.90;;;;;;5098993;28;20425;-63
2020/12/25 05:12:50;;;;;;;;;;;0.30;99.90;;;;;;5098992;28;20286;-63
2020/12/25 05:15:16;;;;;;;;;;;0.40;99.90;;;;;;5098054;28;20207;-63
2020/12/25 05:17:42;;;;;;;;;;;0.40;99.90;;;;;;5096962;28;20264;-63
2020/12/25 05:20:08;;;;;;;;;;;0.50;99.90;;;;;;5095910;28;20404;-63
2020/12/25 05:22:33;;;;;;;;;;;0.50;99.90;;;;;;5097255;28;20010;-64
2020/12/25 05:25:00;;;;;;;;;;;0.50;99.90;;;;;;5096056;28;19954;-64
2020/12/25 05:27:26;;;;;;;;;;;0.50;99.90;;;;;;5097432;28;19904;-64
2020/12/25 05:29:55;;;;;;;;;;;0.50;99.90;;;;;;5097190;28;19969;-64
2020/12/25 05:32:23;;;;;;;;;;;0.50;99.90;;;;;;5096966;28;19908;-64
2020/12/25 05:34:48;;;;;;;;;;;0.60;99.90;;;;;;5097439;28;20291;-63
2020/12/25 05:37:14;;;;;;;;;;;0.60;99.90;;;;;;5096333;28;20254;-64
2020/12/25 05:39:40;;;;;;;;;;;0.60;99.90;;;;;;5097040;28;20002;-63
2020/12/25 05:42:06;;;;;;;;;;;0.60;99.90;;;;;;5097461;28;19908;-64
2020/12/25 05:44:35;;;;;;;;;;;0.60;99.90;;;;;;5097279;28;20043;-63
2020/12/25 05:47:01;;;;;;;;;;;0.60;99.90;;;;;;5097506;28;20069;-64
2020/12/25 05:49:27;;;;;;;;;;;0.70;99.90;;;;;;5097212;28;20555;-64
2020/12/25 05:51:53;;;;;;;;;;;0.70;99.90;;;;;;5097385;28;19912;-64
2020/12/25 05:54:21;;;;;;;;;;;0.70;99.90;;;;;;5097233;28;20247;-63
2020/12/25 05:56:49;;;;;;;;;;;0.70;99.90;;;;;;5097324;28;19904;-63
2020/12/25 05:59:15;;;;;;;;;;;0.70;99.90;;;;;;5097132;28;20262;-63
2020/12/25 06:01:43;;;;;;;;;;;0.70;99.90;;;;;;5097795;28;20010;-63
2020/12/25 06:04:08;;;;;;;;;;;0.80;99.90;;;;;;5095948;28;20269;-64
2020/12/25 06:06:34;;;;;;;;;;;0.80;99.90;;;;;;5097247;28;19912;-63
2020/12/25 06:09:04;;;;;;;;;;;0.80;99.90;;;;;;5099729;28;19904;-63
2020/12/25 06:11:30;;;;;;;;;;;0.70;99.90;;;;;;5101088;28;19908;-63
2020/12/25 06:13:56;;;;;;;;;;;0.80;99.90;;;;;;5100699;28;20354;-63
2020/12/25 06:16:22;;;;;;;;;;;0.90;99.90;;;;;;5100791;28;19912;-64
2020/12/25 06:19:07;;;;;;;;;;;0.90;99.90;;;;;;5100646;28;20564;-63
2020/12/25 06:21:40;;;;;;;;;;;0.90;99.90;;;;;;5100577;28;19911;-64
2020/12/25 06:24:09;;;;;;;;;;;0.90;99.90;;;;;;5100294;28;20108;-63
2020/12/25 06:26:35;;;;;;;;;;;0.90;99.90;;;;;;5100378;28;19908;-64
2020/12/25 06:29:02;;;;;;;;;;;0.90;99.90;;;;;;5100540;28;20109;-64
2020/12/25 06:31:40;;;;;;;;;;;0.90;99.90;;;;;;5100660;28;19911;-64
2020/12/25 06:34:06;;;;;;;;;;;0.90;99.90;;;;;;5100377;28;19911;-64
2020/12/25 06:36:32;;;;;;;;;;;0.90;99.90;;;;;;5100866;28;20077;-64
2020/12/25 06:39:04;;;;;;;;;;;0.90;99.90;;;;;;5099325;28;19908;-64
2020/12/25 06:41:33;;;;;;;;;;;0.90;99.90;;;;;;5100871;28;19957;-63
2020/12/25 06:43:58;;;;;;;;;;;0.90;99.90;;;;;;5100538;28;19908;-64
2020/12/25 06:46:28;;;;;;;;;;;0.80;99.90;;;;;;5100575;28;20392;-64
2020/12/25 06:48:58;;;;;;;;;;;0.80;99.90;;;;;;5100796;28;19963;-64
2020/12/25 06:51:26;;;;;;;;;;;0.80;99.90;;;;;;5100279;28;20080;-63
2020/12/25 06:53:54;;;;;;;;;;;0.90;99.90;;;;;;5100323;28;20146;-64
2020/12/25 06:56:20;;;;;;;;;;;0.80;99.90;;;;;;5100622;28;20077;-64
2020/12/25 06:58:47;;;;;;;;;;;0.80;99.90;;;;;;5098861;28;20328;-64
2020/12/25 07:01:14;;;;;;;;;;;0.80;99.90;;;;;;5100218;28;19998;-64
2020/12/25 07:03:40;;;;;;;;;;;0.80;99.90;;;;;;5099967;28;20334;-64
2020/12/25 07:06:06;;;;;;;;;;;0.80;99.90;;;;;;5100348;28;20267;-64
2020/12/25 07:08:33;;;;;;;;;;;0.80;99.90;;;;;;5100079;28;19908;-63
2020/12/25 07:10:59;;;;;;;;;;;0.80;99.90;;;;;;5100367;28;20058;-63
2020/12/25 07:13:25;;;;;;;;;;;0.80;99.90;;;;;;5081743;28;20528;-64
2020/12/25 07:15:51;;;;;;;;;;;0.80;99.90;;;;;;5098665;28;20285;-63
2020/12/25 07:18:16;;;;;;;;;;;0.80;99.90;;;;;;5098669;28;20283;-64
2020/12/25 07:20:42;;;;;;;;;;;0.80;99.90;;;;;;5098235;28;19904;-64
2020/12/25 07:23:07;;;;;;;;;;;0.80;99.90;;;;;;5099348;28;19912;-64
2020/12/25 07:25:39;;;;;;;;;;;0.80;99.90;;;;;;5098831;28;20233;-64
2020/12/25 07:28:05;;;;;;;;;;;0.80;99.90;;;;;;5099636;28;19953;-63
2020/12/25 07:30:30;;;;;;;;;;;0.80;99.90;;;;;;5099996;28;20355;-64
2020/12/25 07:32:56;;;;;;;;;;;0.80;99.90;;;;;;5099526;28;19908;-64
2020/12/25 07:35:22;;;;;;;;;;;0.80;99.90;;;;;;5099972;28;19961;-64
2020/12/25 07:37:54;;;;;;;;;;;0.70;99.90;;;;;;5099420;28;19908;-64
2020/12/25 07:40:19;;;;;;;;;;;0.80;99.90;;;;;;5098526;28;19978;-63
2020/12/25 07:42:45;;;;;;;;;;;0.70;99.90;;;;;;5099303;28;20035;-64
2020/12/25 07:45:10;;;;;;;;;;;0.70;99.90;;;;;;5098418;28;20002;-63
2020/12/25 07:47:39;;;;;;;;;;;0.70;99.90;;;;;;5099277;28;19908;-64
2020/12/25 07:50:04;;;;;;;;;;;0.60;99.90;;;;;;5098880;28;19940;-64
2020/12/25 07:52:30;;;;;;;;;;;0.60;99.90;;;;;;5099096;28;20031;-64
2020/12/25 07:54:55;;;;;;;;;;;0.50;99.90;;;;;;5098192;28;19915;-63
2020/12/25 07:57:21;;;;;;;;;;;0.40;99.90;;;;;;5098678;28;19916;-63
2020/12/25 07:59:47;;;;;;;;;;;0.40;99.90;;;;;;5097927;28;19908;-64
2020/12/25 08:02:13;;;;;;;;;;;0.40;99.90;;;;;;5098849;28;20069;-64
2020/12/25 08:04:43;;;;;;;;;;;0.30;99.90;;;;;;5099304;28;19961;-63
2020/12/25 08:07:09;;;;;;;;;;;0.30;99.90;;;;;;5098604;28;19904;-64
2020/12/25 08:09:36;;;;;;;;;;;0.30;99.90;;;;;;5098614;28;20278;-63
2020/12/25 08:12:02;;;;;;;;;;;0.30;99.90;;;;;;5098811;28;19911;-64
2020/12/25 08:14:29;;;;;;;;;;;0.20;99.90;;;;;;5098945;28;20262;-64
2020/12/25 08:16:55;;;;;;;;;;;0.20;99.90;;;;;;5098630;28;20002;-63
2020/12/25 08:19:20;;;;;;;;;;;0.20;99.90;;;;;;5098817;28;20061;-64
2020/12/25 08:21:46;;;;;;;;;;;0.20;99.90;;;;;;5097531;28;19961;-65
2020/12/25 08:24:11;;;;;;;;;;;0.10;99.90;;;;;;5097295;28;19961;-64
2020/12/25 08:26:40;;;;;;;;;;;0.10;99.90;;;;;;5098548;28;19961;-64
2020/12/25 08:29:07;;;;;;;;;;;0.10;99.90;;;;;;5098805;28;19904;-64
2020/12/25 08:31:36;;;;;;;;;;;0.20;99.90;;;;;;5096809;28;20281;-64
2020/12/25 08:34:02;;;;;;;;;;;0.20;99.90;;;;;;5098725;28;20438;-64
2020/12/25 08:36:28;;;;;;;;;;;0.20;99.90;;;;;;5096762;28;20454;-64
2020/12/25 08:38:54;;;;;;;;;;;0.20;99.90;;;;;;5098591;28;20245;-64
2020/12/25 08:41:24;;;;;;;;;;;0.20;99.90;;;;;;5097918;28;19936;-64
2020/12/25 08:43:50;;;;;;;;;;;0.20;99.90;;;;;;5098411;28;19931;-64
2020/12/25 08:46:20;;;;;;;;;;;0.30;99.90;;;;;;5097754;28;20295;-64
2020/12/25 08:48:52;;;;;;;;;;;0.20;99.90;;;;;;5098212;28;20185;-64
2020/12/25 08:51:18;;;;;;;;;;;0.30;99.90;;;;;;5097697;28;20102;-65
2020/12/25 08:53:53;;;;;;;;;;;0.30;99.90;;;;;;5098443;28;20317;-64
2020/12/25 08:56:20;;;;;;;;;;;0.30;99.90;;;;;;5098019;28;19904;-65
2020/12/25 08:59:05;;;;;;;;;;;0.40;99.90;;;;;;5096711;28;20585;-65
2020/12/25 09:01:31;;;;;;;;;;;0.50;99.90;;;;;;5097665;28;20253;-64
2020/12/25 09:03:58;;;;;;;;;;;0.50;99.90;;;;;;5097773;28;20254;-64
2020/12/25 09:06:24;;;;;;;;;;;0.60;99.90;;;;;;5097433;28;20516;-64
2020/12/25 09:08:49;;;;;;;;;;;0.60;99.90;;;;;;5098059;28;19949;-64
2020/12/25 09:11:19;;;;;;;;;;;0.70;99.90;;;;;;5097300;28;19908;-64
2020/12/25 09:13:45;;;;;;;;;;;0.80;99.90;;;;;;5098007;28;19950;-64
2020/12/25 09:16:11;;;;;;;;;;;0.90;99.90;;;;;;5097635;28;19908;-64
2020/12/25 09:18:37;;;;;;;;;;;1.00;99.90;;;;;;5096117;28;20291;-64
2020/12/25 09:21:03;;;;;;;;;;;1.10;99.90;;;;;;5097395;28;19940;-64
2020/12/25 09:23:29;;;;;;;;;;;1.30;99.90;;;;;;5097615;28;20069;-64
2020/12/25 09:25:54;;;;;;;;;;;1.50;99.90;;;;;;5097092;28;20087;-64
2020/12/25 09:28:20;;;;;;;;;;;1.60;99.90;;;;;;5097763;28;20299;-64
2020/12/25 09:30:45;;;;;;;;;;;1.80;99.90;;;;;;5097427;28;20299;-64
2020/12/25 09:33:11;;;;;;;;;;;2.00;99.90;;;;;;5097745;28;20051;-64
2020/12/25 09:35:36;;;;;;;;;;;2.00;99.90;;;;;;5097209;28;19908;-64
2020/12/25 09:38:02;;;;;;;;;;;2.20;99.90;;;;;;5097227;28;19998;-64
2020/12/25 09:40:28;;;;;;;;;;;2.20;99.90;;;;;;5096981;28;20214;-64
2020/12/25 09:42:53;;;;;;;;;;;2.40;99.90;;;;;;5096486;28;20203;-64
2020/12/25 09:45:19;;;;;;;;;;;2.50;99.90;;;;;;5096412;28;20302;-64
2020/12/25 09:47:44;;;;;;;;;;;2.60;99.90;;;;;;5097156;28;19908;-64
2020/12/25 09:50:10;;;;;;;;;;;2.70;99.90;;;;;;5095784;28;19965;-64
2020/12/25 09:52:35;;;;;;;;;;;2.80;99.90;;;;;;5095780;28;20291;-64
2020/12/25 09:55:01;;;;;;;;;;;2.80;99.90;;;;;;5096808;28;19942;-64
2020/12/25 09:57:27;;;;;;;;;;;2.90;99.90;;;;;;5096859;28;19966;-64
2020/12/25 09:59:56;;;;;;;;;;;3.00;99.90;;;;;;5095696;28;19930;-64
2020/12/25 10:02:21;;;;;;;;;;;3.00;99.90;;;;;;5096989;28;19908;-64
2020/12/25 10:04:47;;;;;;;;;;;3.10;99.90;;;;;;5096839;28;19915;-64
2020/12/25 10:07:13;;;;;;;;;;;3.20;99.90;;;;;;5096763;28;20057;-64
2020/12/25 10:09:38;;;;;;;;;;;3.20;99.90;;;;;;5097149;28;19912;-64
2020/12/25 10:12:04;;;;;;;;;;;3.30;99.90;;;;;;5095967;28;19991;-64
2020/12/25 10:14:29;;;;;;;;;;;3.40;99.90;;;;;;5096935;28;19912;-64
2020/12/25 10:16:55;;;;;;;;;;;3.40;99.90;;;;;;5095278;28;19908;-64
2020/12/25 10:19:21;;;;;;;;;;;3.50;99.90;;;;;;5097227;28;19949;-64
2020/12/25 10:21:48;;;;;;;;;;;3.50;99.90;;;;;;5099204;28;19919;-64
2020/12/25 10:24:13;;;;;;;;;;;3.60;99.90;;;;;;5109740;28;20219;-64
2020/12/25 10:26:46;;;;;;;;;;;3.60;99.90;;;;;;5095404;28;19909;-66
2020/12/25 10:29:12;;;;;;;;;;;3.60;99.90;;;;;;5096734;28;19910;-65
2020/12/25 10:31:38;;;;;;;;;;;3.70;99.90;;;;;;5096694;28;19948;-64
2020/12/25 10:34:03;;;;;;;;;;;3.80;99.90;;;;;;5096997;28;19915;-64
2020/12/25 10:36:29;;;;;;;;;;;3.90;99.90;;;;;;5104384;28;20315;-65
2020/12/25 10:38:54;;;;;;;;;;;4.10;99.90;;;;;;5116722;28;20291;-64
2020/12/25 10:41:20;;;;;;;;;;;4.20;99.90;;;;;;5117244;28;19930;-64
2020/12/25 10:43:46;;;;;;;;;;;4.40;99.90;;;;;;5098333;28;19934;-64
2020/12/25 10:46:18;;;;;;;;;;;4.60;99.90;;;;;;5104981;28;19911;-64
2020/12/25 10:48:43;;;;;;;;;;;4.70;99.90;;;;;;5096292;28;20325;-65
2020/12/25 10:51:09;;;;;;;;;;;4.90;99.90;;;;;;5096370;28;19908;-64
2020/12/25 10:53:35;;;;;;;;;;;5.20;99.90;;;;;;5096878;28;20326;-64
2020/12/25 10:56:01;;;;;;;;;;;5.50;99.90;;;;;;5105850;28;19976;-65
2020/12/25 10:58:26;;;;;;;;;;;5.60;99.90;;;;;;5118477;28;19962;-65
2020/12/25 11:00:52;;;;;;;;;;;5.60;99.90;;;;;;5120894;28;19908;-65
2020/12/25 11:03:17;;;;;;;;;;;5.80;99.90;;;;;;5120426;28;20017;-65
2020/12/25 11:05:43;;;;;;;;;;;5.90;99.90;;;;;;5120422;28;20348;-65
2020/12/25 11:08:09;;;;;;;;;;;6.20;99.90;;;;;;5120319;28;20006;-65
2020/12/25 11:10:34;;;;;;;;;;;6.20;99.90;;;;;;5117402;28;19951;-65
2020/12/25 11:13:00;;;;;;;;;;;6.30;99.90;;;;;;5118916;28;19914;-65
2020/12/25 11:15:25;;;;;;;;;;;6.40;99.90;;;;;;5109028;28;19912;-65
2020/12/25 11:17:51;;;;;;;;;;;6.30;99.90;;;;;;5099862;28;20045;-65
2020/12/25 11:20:16;;;;;;;;;;;6.30;99.90;;;;;;5081066;28;19908;-65
2020/12/25 11:22:42;;;;;;;;;;;6.30;99.90;;;;;;5099691;28;19939;-64
2020/12/25 11:25:07;;;;;;;;;;;6.10;99.90;;;;;;5099247;28;19919;-63
2020/12/25 11:27:33;;;;;;;;;;;6.00;99.90;;;;;;5098028;28;19916;-64
2020/12/25 11:29:58;;;;;;;;;;;6.30;99.90;;;;;;5100955;28;19915;-64
2020/12/25 11:32:24;;;;;;;;;;;6.30;99.90;;;;;;5100578;28;19912;-64
2020/12/25 11:34:49;;;;;;;;;;;6.10;99.90;;;;;;5098731;28;19914;-61
2020/12/25 11:37:15;;;;;;;;;;;6.20;99.90;;;;;;5099617;28;19934;-63
2020/12/25 11:39:40;;;;;;;;;;;6.30;99.90;;;;;;5098866;28;19908;-63
2020/12/25 11:42:06;;;;;;;;;;;6.10;99.90;;;;;;5101056;28;19915;-63
2020/12/25 11:44:31;;;;;;;;;;;5.90;99.90;;;;;;5118225;28;20220;-63
2020/12/25 11:47:00;;;;;;;;;;;5.80;99.90;;;;;;5119439;28;19930;-63
2020/12/25 11:49:25;;;;;;;;;;;5.70;99.90;;;;;;5119893;27;19964;-63
2020/12/25 11:51:56;;;;;;;;;;;5.70;99.90;;;;;;5119342;28;19912;-63
2020/12/25 11:54:21;;;;;;;;;;;5.40;99.90;;;;;;5118275;28;19943;-63
2020/12/25 11:56:47;;;;;;;;;;;5.50;99.90;;;;;;5118796;28;19973;-63
2020/12/25 11:59:12;;;;;;;;;;;5.50;99.90;;;;;;5117721;28;20176;-63
2020/12/25 12:01:38;;;;;;;;;;;5.40;99.90;;;;;;5118404;28;19914;-63
2020/12/25 12:04:03;;;;;;;;;;;5.50;99.90;;;;;;5117137;28;19946;-63
2020/12/25 12:06:29;;;;;;;;;;;5.60;99.90;;;;;;5117880;28;19908;-63
2020/12/25 12:08:55;;;;;;;;;;;5.60;99.90;;;;;;5108188;28;19908;-63
2020/12/25 12:11:20;;;;;;;;;;;5.50;99.90;;;;;;5097850;28;19904;-63
2020/12/25 12:13:46;;;;;;;;;;;5.50;99.90;;;;;;5097276;28;20188;-63
2020/12/25 12:16:12;;;;;;;;;;;5.60;99.90;;;;;;5102023;28;19908;-63
2020/12/25 12:18:38;;;;;;;;;;;5.60;99.90;;;;;;5098056;28;20287;-64
2020/12/25 12:21:03;;;;;;;;;;;5.70;99.90;;;;;;5098188;28;20078;-63
2020/12/25 12:23:29;;;;;;;;;;;5.80;99.90;;;;;;5098193;28;20295;-63
2020/12/25 12:25:54;;;;;;;;;;;5.90;99.90;;;;;;5109343;28;19918;-63
2020/12/25 12:28:20;;;;;;;;;;;5.90;99.90;;;;;;5103597;28;19916;-63
2020/12/25 12:30:47;;;;;;;;;;;5.90;99.90;;;;;;5098385;28;19966;-63
2020/12/25 12:33:13;;;;;;;;;;;5.70;99.90;;;;;;5097399;28;19904;-62
2020/12/25 12:35:39;;;;;;;;;;;5.70;99.90;;;;;;5097760;28;19954;-62
2020/12/25 12:38:04;;;;;;;;;;;5.60;99.90;;;;;;5079512;28;20073;-63
2020/12/25 12:40:30;;;;;;;;;;;5.70;99.90;;;;;;5096779;28;19914;-62
2020/12/25 12:42:55;;;;;;;;;;;5.70;99.90;;;;;;5097372;28;19908;-62
2020/12/25 12:45:21;;;;;;;;;;;5.70;99.90;;;;;;5097939;28;19940;-62
2020/12/25 12:47:47;;;;;;;;;;;5.70;99.90;;;;;;5095759;28;19908;-64
2020/12/25 12:50:12;;;;;;;;;;;5.60;99.90;;;;;;5098105;28;19991;-65
2020/12/25 12:52:38;;;;;;;;;;;5.50;99.90;;;;;;5096022;28;19915;-65
2020/12/25 12:55:04;;;;;;;;;;;5.40;99.90;;;;;;5097683;28;20006;-65
2020/12/25 12:57:29;;;;;;;;;;;5.20;99.90;;;;;;5097370;28;19923;-65
2020/12/25 12:59:55;;;;;;;;;;;5.20;99.90;;;;;;5097734;28;20200;-65
2020/12/25 13:02:20;;;;;;;;;;;5.20;99.90;;;;;;5078957;28;19908;-65
2020/12/25 13:04:46;;;;;;;;;;;5.30;99.90;;;;;;5097702;28;19916;-65
2020/12/25 13:07:11;;;;;;;;;;;5.30;99.90;;;;;;5097442;28;19915;-65
2020/12/25 13:09:37;;;;;;;;;;;5.30;99.90;;;;;;5097142;28;19915;-65
2020/12/25 13:12:02;;;;;;;;;;;5.40;99.90;;;;;;5097488;28;20299;-65
2020/12/25 13:14:28;;;;;;;;;;;5.40;99.90;;;;;;5097201;28;19904;-65
2020/12/25 13:16:53;;;;;;;;;;;5.40;99.90;;;;;;5095440;28;19915;-65
2020/12/25 13:19:19;;;;;;;;;;;5.50;99.90;;;;;;5096910;28;19908;-65
2020/12/25 13:21:45;;;;;;;;;;;5.50;99.90;;;;;;5095901;28;19915;-65
2020/12/25 13:24:10;;;;;;;;;;;5.60;99.90;;;;;;5097211;28;20112;-65
2020/12/25 13:26:36;;;;;;;;;;;5.50;99.90;;;;;;5096460;28;20329;-65
2020/12/25 13:29:02;;;;;;;;;;;5.50;99.90;;;;;;5096710;28;19908;-65
2020/12/25 13:31:28;;;;;;;;;;;5.40;99.90;;;;;;5096022;28;20291;-65
2020/12/25 13:33:53;;;;;;;;;;;5.40;99.90;;;;;;5078705;28;19947;-65
2020/12/25 13:36:20;;;;;;;;;;;5.50;99.90;;;;;;5095950;28;20022;-66
2020/12/25 13:38:46;;;;;;;;;;;5.50;99.90;;;;;;5096875;28;19904;-65
2020/12/25 13:41:15;;;;;;;;;;;5.50;99.90;;;;;;5097324;28;19930;-65
2020/12/25 13:43:41;;;;;;;;;;;5.70;99.90;;;;;;5095396;28;20230;-65
2020/12/25 13:46:13;;;;;;;;;;;5.70;99.90;;;;;;5096766;28;19908;-65
2020/12/25 13:48:40;;;;;;;;;;;5.70;99.90;;;;;;5097055;28;19904;-66
2020/12/25 13:51:10;;;;;;;;;;;5.60;99.90;;;;;;5096414;28;19911;-66
2020/12/25 13:53:36;;;;;;;;;;;5.60;99.90;;;;;;5097053;28;20341;-65
2020/12/25 13:56:01;;;;;;;;;;;5.60;99.90;;;;;;5096079;28;19912;-64
2020/12/25 13:58:27;;;;;;;;;;;5.60;99.90;;;;;;5096130;28;19923;-63
2020/12/25 14:00:52;;;;;;;;;;;5.90;99.90;;;;;;5096032;28;19908;-64
2020/12/25 14:03:18;;;;;;;;;;;5.90;99.90;;;;;;5094876;28;20350;-62
2020/12/25 14:05:43;;;;;;;;;;;5.90;99.90;;;;;;5096059;28;19947;-64
2020/12/25 14:08:09;;;;;;;;;;;5.80;99.90;;;;;;5096825;28;19914;-64
2020/12/25 14:10:34;;;;;;;;;;;5.70;99.90;;;;;;5096138;28;19908;-63
2020/12/25 14:13:00;;;;;;;;;;;5.70;99.90;;;;;;5096432;28;19943;-63
2020/12/25 14:15:25;;;;;;;;;;;5.70;99.90;;;;;;5095995;28;20329;-64
2020/12/25 14:17:52;;;;;;;;;;;5.70;99.90;;;;;;5096892;28;19909;-63
2020/12/25 14:20:18;;;;;;;;;;;5.70;99.90;;;;;;5096530;28;19908;-63
2020/12/25 14:22:43;;;;;;;;;;;5.70;99.90;;;;;;5096664;28;19919;-63
2020/12/25 14:25:09;;;;;;;;;;;5.70;99.90;;;;;;5095187;28;20374;-65